F/V Le Dolmen — FHMD — position and weather

sailwx.info

Track history (hours):
 
Tides and Currents Weather Stations Pressure Air Temp Water Temp Dewpoint Dewpoint Depression Visibility Wind Speed Wind Dir Waves Ship Positions

F/V Le Dolmen

Last reported at 2014-Nov-21 20:32 UTC. Time now 2014-Nov-24 13:49 UTC.
Position N 46°33' W 002°27'.

Length 18 m.

Type: Fishing. MMSI: 228374000.

Date/timePositionNaut miles runAvg speedWind from/ knotsBaromVisibWave heightAir tempDewpointWater temp
2014-Nov-21 20:32N 46°33' W 002°27'15 0.4
2014-Nov-20 03:32N 46°39' W 002°46'64 2.1
2014-Nov-18 20:29N 47°39' W 003°20'5 5.7
2014-Nov-18 19:33N 47°44' W 003°22'0 0.0
2014-Nov-18 18:33N 47°44' W 003°22'0 0.0
2014-Nov-18 17:33N 47°44' W 003°22'  
2014-Nov-15 05:13N 47°44' W 003°22'0 0.0
2014-Nov-15 04:33N 47°44' W 003°22'0 0.0
2014-Nov-15 03:33N 47°44' W 003°22'0 0.1
2014-Nov-15 02:33N 47°44' W 003°22'0 0.0
2014-Nov-15 01:33N 47°44' W 003°22'0 0.1
2014-Nov-15 00:33N 47°44' W 003°22'3 3.5
2014-Nov-14 23:33N 47°40' W 003°22'9 9.1
2014-Nov-14 22:33N 47°32' W 003°15'  
Track history (hours):
 
Tides and Currents Weather Stations Pressure Air Temp Water Temp Dewpoint Dewpoint Depression Visibility Wind Speed Wind Dir Waves Ship Positions

F/V Le Dolmen

Last reported at 2014-Nov-21 20:32 UTC. Time now 2014-Nov-24 13:49 UTC.
Position N 46°33' W 002°27'.

Length 18 m.

Type: Fishing. MMSI: 228374000.

Date/timePositionNaut miles runAvg speedWind from/ knotsBaromVisibWave heightAir tempDewpointWater temp
2014-Nov-21 20:32N 46°33' W 002°27'15 0.4
2014-Nov-20 03:32N 46°39' W 002°46'64 2.1
2014-Nov-18 20:29N 47°39' W 003°20'5 5.7
2014-Nov-18 19:33N 47°44' W 003°22'0 0.0
2014-Nov-18 18:33N 47°44' W 003°22'0 0.0
2014-Nov-18 17:33N 47°44' W 003°22'  
2014-Nov-15 05:13N 47°44' W 003°22'0 0.0
2014-Nov-15 04:33N 47°44' W 003°22'0 0.0
2014-Nov-15 03:33N 47°44' W 003°22'0 0.1
2014-Nov-15 02:33N 47°44' W 003°22'0 0.0
2014-Nov-15 01:33N 47°44' W 003°22'0 0.1
2014-Nov-15 00:33N 47°44' W 003°22'3 3.5
2014-Nov-14 23:33N 47°40' W 003°22'9 9.1
2014-Nov-14 22:33N 47°32' W 003°15'  

Dump ship's entire track history